sensor_id;sensor_type;location;lat;lon;timestamp;temperature;humidity
18160;DHT22;9205;52.032;4.314;2023-04-19T00:01:03;9.30;99.90
18160;DHT22;9205;52.032;4.314;2023-04-19T00:03:30;9.40;99.90
18160;DHT22;9205;52.032;4.314;2023-04-19T00:05:57;9.40;99.90
18160;DHT22;9205;52.032;4.314;2023-04-19T00:08:26;9.40;99.90
18160;DHT22;9205;52.032;4.314;2023-04-19T00:10:53;9.30;99.90
18160;DHT22;9205;52.032;4.314;2023-04-19T00:13:20;9.30;99.90
18160;DHT22;9205;52.032;4.314;2023-04-19T00:15:47;9.40;99.90
18160;DHT22;9205;52.032;4.314;2023-04-19T00:18:15;9.30;99.90
18160;DHT22;9205;52.032;4.314;2023-04-19T00:20:42;9.30;99.90
18160;DHT22;9205;52.032;4.314;2023-04-19T00:23:10;9.40;99.90
18160;DHT22;9205;52.032;4.314;2023-04-19T00:25:38;9.40;99.90
18160;DHT22;9205;52.032;4.314;2023-04-19T00:28:06;9.40;99.90
18160;DHT22;9205;52.032;4.314;2023-04-19T00:30:33;9.30;99.90
18160;DHT22;9205;52.032;4.314;2023-04-19T00:33:00;9.30;99.90
18160;DHT22;9205;52.032;4.314;2023-04-19T00:35:27;9.30;99.90
18160;DHT22;9205;52.032;4.314;2023-04-19T00:37:54;9.30;99.90
18160;DHT22;9205;52.032;4.314;2023-04-19T00:40:22;9.20;99.90
18160;DHT22;9205;52.032;4.314;2023-04-19T00:42:50;9.30;99.90
18160;DHT22;9205;52.032;4.314;2023-04-19T00:45:17;9.30;99.90
18160;DHT22;9205;52.032;4.314;2023-04-19T00:47:45;9.30;99.90
18160;DHT22;9205;52.032;4.314;2023-04-19T00:50:12;9.30;99.90
18160;DHT22;9205;52.032;4.314;2023-04-19T00:52:39;9.30;99.90
18160;DHT22;9205;52.032;4.314;2023-04-19T00:55:07;9.30;99.90
18160;DHT22;9205;52.032;4.314;2023-04-19T00:57:36;9.30;99.90
18160;DHT22;9205;52.032;4.314;2023-04-19T01:00:06;9.20;99.90
18160;DHT22;9205;52.032;4.314;2023-04-19T01:02:35;9.30;99.90
18160;DHT22;9205;52.032;4.314;2023-04-19T01:05:02;9.20;99.90
18160;DHT22;9205;52.032;4.314;2023-04-19T01:07:32;9.20;99.90
18160;DHT22;9205;52.032;4.314;2023-04-19T01:10:00;9.20;99.90
18160;DHT22;9205;52.032;4.314;2023-04-19T01:12:28;9.10;1.00
18160;DHT22;9205;52.032;4.314;2023-04-19T01:14:55;9.10;1.00
18160;DHT22;9205;52.032;4.314;2023-04-19T01:17:25;9.10;1.00
18160;DHT22;9205;52.032;4.314;2023-04-19T01:19:58;9.10;1.00
18160;DHT22;9205;52.032;4.314;2023-04-19T01:22:27;9.10;1.00
18160;DHT22;9205;52.032;4.314;2023-04-19T01:24:56;9.10;1.00
18160;DHT22;9205;52.032;4.314;2023-04-19T01:27:24;9.10;1.00
18160;DHT22;9205;52.032;4.314;2023-04-19T01:29:51;9.00;1.00
18160;DHT22;9205;52.032;4.314;2023-04-19T01:32:18;9.10;1.00
18160;DHT22;9205;52.032;4.314;2023-04-19T01:34:49;9.00;1.00
18160;DHT22;9205;52.032;4.314;2023-04-19T01:37:18;9.00;1.00
18160;DHT22;9205;52.032;4.314;2023-04-19T01:39:46;9.00;1.00
18160;DHT22;9205;52.032;4.314;2023-04-19T01:42:14;9.00;1.00
18160;DHT22;9205;52.032;4.314;2023-04-19T01:44:41;9.00;1.00
18160;DHT22;9205;52.032;4.314;2023-04-19T01:47:08;9.00;1.00
18160;DHT22;9205;52.032;4.314;2023-04-19T01:49:35;9.00;1.00
18160;DHT22;9205;52.032;4.314;2023-04-19T01:52:03;9.00;1.00
18160;DHT22;9205;52.032;4.314;2023-04-19T01:54:30;8.90;1.00
18160;DHT22;9205;52.032;4.314;2023-04-19T01:56:59;8.90;1.00
18160;DHT22;9205;52.032;4.314;2023-04-19T01:59:27;8.90;1.00
18160;DHT22;9205;52.032;4.314;2023-04-19T02:01:55;8.90;1.00
18160;DHT22;9205;52.032;4.314;2023-04-19T02:04:23;8.90;1.00
18160;DHT22;9205;52.032;4.314;2023-04-19T02:06:50;8.90;1.00
18160;DHT22;9205;52.032;4.314;2023-04-19T02:09:18;8.80;1.00
18160;DHT22;9205;52.032;4.314;2023-04-19T02:11:45;8.90;1.00
18160;DHT22;9205;52.032;4.314;2023-04-19T02:14:14;8.80;1.00
18160;DHT22;9205;52.032;4.314;2023-04-19T02:16:42;8.80;1.00
18160;DHT22;9205;52.032;4.314;2023-04-19T02:19:09;8.90;1.00
18160;DHT22;9205;52.032;4.314;2023-04-19T02:21:37;8.80;1.00
18160;DHT22;9205;52.032;4.314;2023-04-19T02:24:05;8.80;1.00
18160;DHT22;9205;52.032;4.314;2023-04-19T02:26:33;8.80;1.00
18160;DHT22;9205;52.032;4.314;2023-04-19T02:29:00;8.80;1.00
18160;DHT22;9205;52.032;4.314;2023-04-19T02:31:29;8.90;1.00
18160;DHT22;9205;52.032;4.314;2023-04-19T02:33:56;8.90;1.00
18160;DHT22;9205;52.032;4.314;2023-04-19T02:36:24;8.90;1.00
18160;DHT22;9205;52.032;4.314;2023-04-19T02:38:51;8.80;1.00
18160;DHT22;9205;52.032;4.314;2023-04-19T02:41:19;8.90;1.00
18160;DHT22;9205;52.032;4.314;2023-04-19T02:43:46;8.90;1.00
18160;DHT22;9205;52.032;4.314;2023-04-19T02:46:13;8.90;1.00
18160;DHT22;9205;52.032;4.314;2023-04-19T02:48:41;8.90;1.00
18160;DHT22;9205;52.032;4.314;2023-04-19T02:51:14;8.90;1.00
18160;DHT22;9205;52.032;4.314;2023-04-19T02:53:42;8.90;1.00
18160;DHT22;9205;52.032;4.314;2023-04-19T02:56:09;8.90;1.00
18160;DHT22;9205;52.032;4.314;2023-04-19T02:58:36;9.00;1.00
18160;DHT22;9205;52.032;4.314;2023-04-19T03:01:05;9.00;1.00
18160;DHT22;9205;52.032;4.314;2023-04-19T03:03:32;9.10;1.00
18160;DHT22;9205;52.032;4.314;2023-04-19T03:06:01;9.10;1.00
18160;DHT22;9205;52.032;4.314;2023-04-19T03:08:29;9.10;1.00
18160;DHT22;9205;52.032;4.314;2023-04-19T03:10:57;9.20;1.00
18160;DHT22;9205;52.032;4.314;2023-04-19T03:13:24;9.20;1.00
18160;DHT22;9205;52.032;4.314;2023-04-19T03:15:51;9.30;1.00
18160;DHT22;9205;52.032;4.314;2023-04-19T03:18:21;9.30;1.00
18160;DHT22;9205;52.032;4.314;2023-04-19T03:20:50;9.30;1.00
18160;DHT22;9205;52.032;4.314;2023-04-19T03:23:19;9.40;1.00
18160;DHT22;9205;52.032;4.314;2023-04-19T03:25:47;9.40;1.00
18160;DHT22;9205;52.032;4.314;2023-04-19T03:28:23;9.40;1.00
18160;DHT22;9205;52.032;4.314;2023-04-19T03:31:23;9.40;1.00
18160;DHT22;9205;52.032;4.314;2023-04-19T03:33:52;9.40;1.00
18160;DHT22;9205;52.032;4.314;2023-04-19T03:36:24;9.50;1.00
18160;DHT22;9205;52.032;4.314;2023-04-19T03:38:53;9.50;1.00
18160;DHT22;9205;52.032;4.314;2023-04-19T03:41:22;9.50;1.00
18160;DHT22;9205;52.032;4.314;2023-04-19T03:44:07;9.60;1.00
18160;DHT22;9205;52.032;4.314;2023-04-19T03:46:35;9.50;1.00
18160;DHT22;9205;52.032;4.314;2023-04-19T03:49:03;9.60;1.00
18160;DHT22;9205;52.032;4.314;2023-04-19T03:51:31;9.60;1.00
18160;DHT22;9205;52.032;4.314;2023-04-19T03:54:00;9.60;1.00
18160;DHT22;9205;52.032;4.314;2023-04-19T03:56:28;9.60;1.00
18160;DHT22;9205;52.032;4.314;2023-04-19T03:58:56;9.60;1.00
18160;DHT22;9205;52.032;4.314;2023-04-19T04:01:23;9.60;1.00
18160;DHT22;9205;52.032;4.314;2023-04-19T04:03:52;9.70;1.00
18160;DHT22;9205;52.032;4.314;2023-04-19T04:06:19;9.70;1.00
18160;DHT22;9205;52.032;4.314;2023-04-19T04:08:47;9.70;1.00
18160;DHT22;9205;52.032;4.314;2023-04-19T04:11:16;9.70;1.00
18160;DHT22;9205;52.032;4.314;2023-04-19T04:13:46;9.70;1.00
18160;DHT22;9205;52.032;4.314;2023-04-19T04:16:19;9.80;1.00
18160;DHT22;9205;52.032;4.314;2023-04-19T04:18:47;9.80;1.00
18160;DHT22;9205;52.032;4.314;2023-04-19T04:21:14;9.70;1.00
18160;DHT22;9205;52.032;4.314;2023-04-19T04:23:45;9.80;1.00
18160;DHT22;9205;52.032;4.314;2023-04-19T04:26:23;9.80;1.00
18160;DHT22;9205;52.032;4.314;2023-04-19T04:29:07;9.80;1.00
18160;DHT22;9205;52.032;4.314;2023-04-19T04:31:38;9.80;1.00
18160;DHT22;9205;52.032;4.314;2023-04-19T04:34:05;9.80;1.00
18160;DHT22;9205;52.032;4.314;2023-04-19T04:36:36;9.80;1.00
18160;DHT22;9205;52.032;4.314;2023-04-19T04:39:03;9.80;1.00
18160;DHT22;9205;52.032;4.314;2023-04-19T04:41:32;9.70;1.00
18160;DHT22;9205;52.032;4.314;2023-04-19T04:44:00;9.80;1.00
18160;DHT22;9205;52.032;4.314;2023-04-19T04:46:29;9.80;1.00
18160;DHT22;9205;52.032;4.314;2023-04-19T04:48:56;9.80;1.00
18160;DHT22;9205;52.032;4.314;2023-04-19T04:51:24;9.80;1.00
18160;DHT22;9205;52.032;4.314;2023-04-19T04:53:53;9.80;1.00
18160;DHT22;9205;52.032;4.314;2023-04-19T04:56:22;9.80;1.00
18160;DHT22;9205;52.032;4.314;2023-04-19T04:58:52;9.80;1.00
18160;DHT22;9205;52.032;4.314;2023-04-19T05:01:26;9.80;1.00
18160;DHT22;9205;52.032;4.314;2023-04-19T05:03:53;9.90;1.00
18160;DHT22;9205;52.032;4.314;2023-04-19T05:06:21;9.90;1.00
18160;DHT22;9205;52.032;4.314;2023-04-19T05:08:48;9.90;1.00
18160;DHT22;9205;52.032;4.314;2023-04-19T05:11:23;9.90;1.00
18160;DHT22;9205;52.032;4.314;2023-04-19T05:13:53;9.90;1.00
18160;DHT22;9205;52.032;4.314;2023-04-19T05:16:20;9.90;1.00
18160;DHT22;9205;52.032;4.314;2023-04-19T05:18:48;9.90;1.00
18160;DHT22;9205;52.032;4.314;2023-04-19T05:21:15;9.90;1.00
18160;DHT22;9205;52.032;4.314;2023-04-19T05:23:43;9.90;1.00
18160;DHT22;9205;52.032;4.314;2023-04-19T05:26:12;10.00;1.00
18160;DHT22;9205;52.032;4.314;2023-04-19T05:28:43;10.00;1.00
18160;DHT22;9205;52.032;4.314;2023-04-19T05:31:31;10.00;1.00
18160;DHT22;9205;52.032;4.314;2023-04-19T05:34:08;9.90;1.00
18160;DHT22;9205;52.032;4.314;2023-04-19T05:36:36;9.90;1.00
18160;DHT22;9205;52.032;4.314;2023-04-19T05:39:03;9.90;1.00
18160;DHT22;9205;52.032;4.314;2023-04-19T05:41:30;9.90;1.00
18160;DHT22;9205;52.032;4.314;2023-04-19T05:43:57;9.90;1.00
18160;DHT22;9205;52.032;4.314;2023-04-19T05:46:25;9.90;1.00
18160;DHT22;9205;52.032;4.314;2023-04-19T05:48:55;9.90;1.00
18160;DHT22;9205;52.032;4.314;2023-04-19T05:51:41;9.90;1.00
18160;DHT22;9205;52.032;4.314;2023-04-19T05:54:12;9.90;1.00
18160;DHT22;9205;52.032;4.314;2023-04-19T05:56:43;9.90;1.00
18160;DHT22;9205;52.032;4.314;2023-04-19T05:59:10;9.90;1.00
18160;DHT22;9205;52.032;4.314;2023-04-19T06:01:38;9.90;1.00
18160;DHT22;9205;52.032;4.314;2023-04-19T06:04:07;10.00;1.00
18160;DHT22;9205;52.032;4.314;2023-04-19T06:06:35;9.90;1.00
18160;DHT22;9205;52.032;4.314;2023-04-19T06:09:03;10.00;1.00
18160;DHT22;9205;52.032;4.314;2023-04-19T06:11:31;10.00;1.00
18160;DHT22;9205;52.032;4.314;2023-04-19T06:13:59;10.00;1.00
18160;DHT22;9205;52.032;4.314;2023-04-19T06:16:26;10.00;1.00
18160;DHT22;9205;52.032;4.314;2023-04-19T06:18:55;10.00;1.00
18160;DHT22;9205;52.032;4.314;2023-04-19T06:21:24;10.00;1.00
18160;DHT22;9205;52.032;4.314;2023-04-19T06:23:51;10.00;1.00
18160;DHT22;9205;52.032;4.314;2023-04-19T06:26:18;10.00;1.00
18160;DHT22;9205;52.032;4.314;2023-04-19T06:28:46;10.00;1.00
18160;DHT22;9205;52.032;4.314;2023-04-19T06:31:13;10.00;1.00
18160;DHT22;9205;52.032;4.314;2023-04-19T06:33:41;10.00;1.00
18160;DHT22;9205;52.032;4.314;2023-04-19T06:36:08;10.10;1.00
18160;DHT22;9205;52.032;4.314;2023-04-19T06:38:37;10.10;1.00
18160;DHT22;9205;52.032;4.314;2023-04-19T06:41:06;10.10;99.90
18160;DHT22;9205;52.032;4.314;2023-04-19T06:43:33;10.10;99.90
18160;DHT22;9205;52.032;4.314;2023-04-19T06:46:01;10.10;99.90
18160;DHT22;9205;52.032;4.314;2023-04-19T06:48:29;10.20;99.90
18160;DHT22;9205;52.032;4.314;2023-04-19T06:50:56;10.20;30.60
18160;DHT22;9205;52.032;4.314;2023-04-19T06:53:23;10.30;1.00
18160;DHT22;9205;52.032;4.314;2023-04-19T06:55:57;10.40;1.00
18160;DHT22;9205;52.032;4.314;2023-04-19T06:58:26;10.40;1.00
18160;DHT22;9205;52.032;4.314;2023-04-19T07:00:53;10.50;99.90
18160;DHT22;9205;52.032;4.314;2023-04-19T07:03:21;10.70;23.00
18160;DHT22;9205;52.032;4.314;2023-04-19T07:05:48;10.70;1.00
18160;DHT22;9205;52.032;4.314;2023-04-19T07:08:17;10.70;99.90
18160;DHT22;9205;52.032;4.314;2023-04-19T07:10:44;10.80;99.90
18160;DHT22;9205;52.032;4.314;2023-04-19T07:13:12;10.90;1.00
18160;DHT22;9205;52.032;4.314;2023-04-19T07:15:40;10.90;1.00
18160;DHT22;9205;52.032;4.314;2023-04-19T07:18:07;11.00;1.00
18160;DHT22;9205;52.032;4.314;2023-04-19T07:20:35;11.00;1.00
18160;DHT22;9205;52.032;4.314;2023-04-19T07:23:04;11.00;1.00
18160;DHT22;9205;52.032;4.314;2023-04-19T07:25:31;11.10;1.00
18160;DHT22;9205;52.032;4.314;2023-04-19T07:27:58;11.10;99.90
18160;DHT22;9205;52.032;4.314;2023-04-19T07:30:26;11.10;99.90
18160;DHT22;9205;52.032;4.314;2023-04-19T07:32:54;11.20;99.90
18160;DHT22;9205;52.032;4.314;2023-04-19T07:35:21;11.30;99.90
18160;DHT22;9205;52.032;4.314;2023-04-19T07:37:48;11.40;99.90
18160;DHT22;9205;52.032;4.314;2023-04-19T07:40:16;11.50;99.90
18160;DHT22;9205;52.032;4.314;2023-04-19T07:42:43;11.50;1.00
18160;DHT22;9205;52.032;4.314;2023-04-19T07:45:11;11.50;1.00
18160;DHT22;9205;52.032;4.314;2023-04-19T07:47:40;11.50;1.00
18160;DHT22;9205;52.032;4.314;2023-04-19T07:50:08;11.50;1.00
18160;DHT22;9205;52.032;4.314;2023-04-19T07:52:37;11.50;1.00
18160;DHT22;9205;52.032;4.314;2023-04-19T07:55:05;11.60;1.00
18160;DHT22;9205;52.032;4.314;2023-04-19T07:57:33;11.60;1.00
18160;DHT22;9205;52.032;4.314;2023-04-19T08:00:01;11.50;1.00
18160;DHT22;9205;52.032;4.314;2023-04-19T08:02:43;11.50;99.90
18160;DHT22;9205;52.032;4.314;2023-04-19T08:05:10;11.60;99.90
18160;DHT22;9205;52.032;4.314;2023-04-19T08:07:38;11.80;99.90
18160;DHT22;9205;52.032;4.314;2023-04-19T08:10:06;11.90;99.90
18160;DHT22;9205;52.032;4.314;2023-04-19T08:12:36;11.90;99.90
18160;DHT22;9205;52.032;4.314;2023-04-19T08:15:05;11.90;99.90
18160;DHT22;9205;52.032;4.314;2023-04-19T08:17:34;12.00;1.00
18160;DHT22;9205;52.032;4.314;2023-04-19T08:20:04;12.10;1.00
18160;DHT22;9205;52.032;4.314;2023-04-19T08:22:32;12.10;1.00
18160;DHT22;9205;52.032;4.314;2023-04-19T08:24:59;12.20;1.00
18160;DHT22;9205;52.032;4.314;2023-04-19T08:27:27;12.30;1.00
18160;DHT22;9205;52.032;4.314;2023-04-19T08:29:54;12.40;1.00
18160;DHT22;9205;52.032;4.314;2023-04-19T08:32:21;12.40;1.00
18160;DHT22;9205;52.032;4.314;2023-04-19T08:34:48;12.50;1.00
18160;DHT22;9205;52.032;4.314;2023-04-19T08:37:17;12.40;1.00
18160;DHT22;9205;52.032;4.314;2023-04-19T08:39:44;12.50;1.00
18160;DHT22;9205;52.032;4.314;2023-04-19T08:42:11;12.50;1.00
18160;DHT22;9205;52.032;4.314;2023-04-19T08:44:39;12.60;1.00
18160;DHT22;9205;52.032;4.314;2023-04-19T08:47:07;12.50;1.00
18160;DHT22;9205;52.032;4.314;2023-04-19T08:49:35;12.50;1.00
18160;DHT22;9205;52.032;4.314;2023-04-19T08:52:05;12.60;1.00
18160;DHT22;9205;52.032;4.314;2023-04-19T08:54:35;12.80;1.00
18160;DHT22;9205;52.032;4.314;2023-04-19T08:57:04;12.70;1.00
18160;DHT22;9205;52.032;4.314;2023-04-19T08:59:33;12.80;1.00
18160;DHT22;9205;52.032;4.314;2023-04-19T09:02:01;12.80;1.00
18160;DHT22;9205;52.032;4.314;2023-04-19T09:04:28;12.90;1.00
18160;DHT22;9205;52.032;4.314;2023-04-19T09:06:56;13.10;1.00
18160;DHT22;9205;52.032;4.314;2023-04-19T09:09:24;13.10;1.00
18160;DHT22;9205;52.032;4.314;2023-04-19T09:11:54;12.90;99.90
18160;DHT22;9205;52.032;4.314;2023-04-19T09:14:25;13.10;99.90
18160;DHT22;9205;52.032;4.314;2023-04-19T09:17:09;13.10;99.90
18160;DHT22;9205;52.032;4.314;2023-04-19T09:19:45;13.10;99.90
18160;DHT22;9205;52.032;4.314;2023-04-19T09:22:13;13.20;99.90
18160;DHT22;9205;52.032;4.314;2023-04-19T09:24:41;13.20;77.30
18160;DHT22;9205;52.032;4.314;2023-04-19T09:27:10;13.20;3.40
18160;DHT22;9205;52.032;4.314;2023-04-19T09:29:37;13.20;1.00
18160;DHT22;9205;52.032;4.314;2023-04-19T09:32:04;13.30;1.00
18160;DHT22;9205;52.032;4.314;2023-04-19T09:34:32;13.40;1.00
18160;DHT22;9205;52.032;4.314;2023-04-19T09:37:11;13.50;1.00
18160;DHT22;9205;52.032;4.314;2023-04-19T09:39:39;13.30;1.00
18160;DHT22;9205;52.032;4.314;2023-04-19T09:42:06;13.40;1.00
18160;DHT22;9205;52.032;4.314;2023-04-19T09:44:35;13.40;1.00
18160;DHT22;9205;52.032;4.314;2023-04-19T09:47:21;13.40;1.00
18160;DHT22;9205;52.032;4.314;2023-04-19T09:50:03;13.60;1.00
18160;DHT22;9205;52.032;4.314;2023-04-19T09:52:32;13.60;1.00
18160;DHT22;9205;52.032;4.314;2023-04-19T09:55:01;13.70;1.00
18160;DHT22;9205;52.032;4.314;2023-04-19T09:57:29;13.80;1.00
18160;DHT22;9205;52.032;4.314;2023-04-19T09:59:59;13.80;1.00
18160;DHT22;9205;52.032;4.314;2023-04-19T10:02:39;13.80;1.00
18160;DHT22;9205;52.032;4.314;2023-04-19T10:05:08;13.80;1.00
18160;DHT22;9205;52.032;4.314;2023-04-19T10:07:36;13.90;1.00
18160;DHT22;9205;52.032;4.314;2023-04-19T10:10:05;13.90;1.00
18160;DHT22;9205;52.032;4.314;2023-04-19T10:12:34;14.00;1.00
18160;DHT22;9205;52.032;4.314;2023-04-19T10:15:06;14.00;1.00
18160;DHT22;9205;52.032;4.314;2023-04-19T10:17:36;14.10;1.00
18160;DHT22;9205;52.032;4.314;2023-04-19T10:20:07;14.20;1.00
18160;DHT22;9205;52.032;4.314;2023-04-19T10:22:38;14.20;1.00
18160;DHT22;9205;52.032;4.314;2023-04-19T10:25:10;14.30;1.00
18160;DHT22;9205;52.032;4.314;2023-04-19T10:27:40;14.30;1.00
18160;DHT22;9205;52.032;4.314;2023-04-19T10:30:17;14.20;1.00
18160;DHT22;9205;52.032;4.314;2023-04-19T10:32:50;14.30;1.00
18160;DHT22;9205;52.032;4.314;2023-04-19T10:35:19;14.40;99.90
18160;DHT22;9205;52.032;4.314;2023-04-19T10:38:08;14.40;99.90
18160;DHT22;9205;52.032;4.314;2023-04-19T10:40:57;14.30;99.90
18160;DHT22;9205;52.032;4.314;2023-04-19T10:43:27;14.30;99.90
18160;DHT22;9205;52.032;4.314;2023-04-19T10:45:58;14.50;99.90
18160;DHT22;9205;52.032;4.314;2023-04-19T10:48:52;14.40;99.90
18160;DHT22;9205;52.032;4.314;2023-04-19T10:51:21;14.50;99.90
18160;DHT22;9205;52.032;4.314;2023-04-19T10:53:55;14.90;99.90
18160;DHT22;9205;52.032;4.314;2023-04-19T10:56:58;15.20;99.90
18160;DHT22;9205;52.032;4.314;2023-04-19T10:59:29;15.40;99.90
18160;DHT22;9205;52.032;4.314;2023-04-19T11:02:00;15.50;99.90
18160;DHT22;9205;52.032;4.314;2023-04-19T11:07:40;16.40;99.90
18160;DHT22;9205;52.032;4.314;2023-04-19T11:10:10;16.60;99.90
18160;DHT22;9205;52.032;4.314;2023-04-19T11:12:41;16.70;99.90
18160;DHT22;9205;52.032;4.314;2023-04-19T11:15:10;16.90;99.90
18160;DHT22;9205;52.032;4.314;2023-04-19T11:17:38;17.00;99.90
18160;DHT22;9205;52.032;4.314;2023-04-19T11:20:08;16.70;99.90
18160;DHT22;9205;52.032;4.314;2023-04-19T11:22:38;16.60;99.90
18160;DHT22;9205;52.032;4.314;2023-04-19T11:25:08;16.40;99.90
18160;DHT22;9205;52.032;4.314;2023-04-19T11:27:38;16.30;99.90
18160;DHT22;9205;52.032;4.314;2023-04-19T11:30:07;16.50;99.90
18160;DHT22;9205;52.032;4.314;2023-04-19T11:32:43;16.30;99.90
18160;DHT22;9205;52.032;4.314;2023-04-19T11:35:13;16.20;99.90
18160;DHT22;9205;52.032;4.314;2023-04-19T11:37:41;16.40;99.90
18160;DHT22;9205;52.032;4.314;2023-04-19T11:40:09;16.30;99.90
18160;DHT22;9205;52.032;4.314;2023-04-19T11:42:41;16.00;99.90
18160;DHT22;9205;52.032;4.314;2023-04-19T11:45:10;15.60;98.30
18160;DHT22;9205;52.032;4.314;2023-04-19T11:47:47;16.10;99.90
18160;DHT22;9205;52.032;4.314;2023-04-19T11:50:33;16.40;99.90
18160;DHT22;9205;52.032;4.314;2023-04-19T11:53:11;16.50;99.90
18160;DHT22;9205;52.032;4.314;2023-04-19T11:55:44;16.30;99.90
18160;DHT22;9205;52.032;4.314;2023-04-19T11:58:26;16.40;99.90
18160;DHT22;9205;52.032;4.314;2023-04-19T12:00:56;16.20;99.90
18160;DHT22;9205;52.032;4.314;2023-04-19T12:03:26;16.40;99.90
18160;DHT22;9205;52.032;4.314;2023-04-19T12:05:54;16.40;99.90
18160;DHT22;9205;52.032;4.314;2023-04-19T12:08:32;16.40;99.90
18160;DHT22;9205;52.032;4.314;2023-04-19T12:11:01;16.50;99.90
18160;DHT22;9205;52.032;4.314;2023-04-19T12:13:30;16.70;99.90
18160;DHT22;9205;52.032;4.314;2023-04-19T12:15:58;16.50;99.90
18160;DHT22;9205;52.032;4.314;2023-04-19T12:18:41;16.40;85.10
18160;DHT22;9205;52.032;4.314;2023-04-19T12:21:10;16.60;94.80
18160;DHT22;9205;52.032;4.314;2023-04-19T12:23:49;16.90;98.10
18160;DHT22;9205;52.032;4.314;2023-04-19T12:26:19;16.80;75.20
18160;DHT22;9205;52.032;4.314;2023-04-19T12:28:46;17.00;72.30
18160;DHT22;9205;52.032;4.314;2023-04-19T12:31:13;17.00;75.50
18160;DHT22;9205;52.032;4.314;2023-04-19T12:33:42;16.80;50.10
18160;DHT22;9205;52.032;4.314;2023-04-19T12:36:09;16.90;57.20
18160;DHT22;9205;52.032;4.314;2023-04-19T12:38:36;16.80;71.60
18160;DHT22;9205;52.032;4.314;2023-04-19T12:41:04;17.20;99.90
18160;DHT22;9205;52.032;4.314;2023-04-19T12:43:32;17.60;92.40
18160;DHT22;9205;52.032;4.314;2023-04-19T12:45:59;17.80;77.20
18160;DHT22;9205;52.032;4.314;2023-04-19T12:48:27;17.90;77.00
18160;DHT22;9205;52.032;4.314;2023-04-19T12:50:56;17.90;94.40
18160;DHT22;9205;52.032;4.314;2023-04-19T12:53:23;17.50;37.70
18160;DHT22;9205;52.032;4.314;2023-04-19T12:55:50;17.20;25.50
18160;DHT22;9205;52.032;4.314;2023-04-19T12:58:18;17.30;17.40
18160;DHT22;9205;52.032;4.314;2023-04-19T13:00:46;17.70;33.20
18160;DHT22;9205;52.032;4.314;2023-04-19T13:03:13;17.70;18.70
18160;DHT22;9205;52.032;4.314;2023-04-19T13:05:40;17.70;22.30
18160;DHT22;9205;52.032;4.314;2023-04-19T13:08:09;17.70;6.90
18160;DHT22;9205;52.032;4.314;2023-04-19T13:10:36;17.60;8.80
18160;DHT22;9205;52.032;4.314;2023-04-19T13:13:03;17.30;1.00
18160;DHT22;9205;52.032;4.314;2023-04-19T13:15:31;17.60;1.00
18160;DHT22;9205;52.032;4.314;2023-04-19T13:17:58;18.00;12.30
18160;DHT22;9205;52.032;4.314;2023-04-19T13:20:25;17.90;1.00
18160;DHT22;9205;52.032;4.314;2023-04-19T13:22:53;18.10;1.00
18160;DHT22;9205;52.032;4.314;2023-04-19T13:25:22;18.10;1.00
18160;DHT22;9205;52.032;4.314;2023-04-19T13:27:49;18.20;1.00
18160;DHT22;9205;52.032;4.314;2023-04-19T13:30:17;17.80;1.00
18160;DHT22;9205;52.032;4.314;2023-04-19T13:32:44;17.80;1.00
18160;DHT22;9205;52.032;4.314;2023-04-19T13:35:11;17.60;1.00
18160;DHT22;9205;52.032;4.314;2023-04-19T13:37:38;17.90;1.00
18160;DHT22;9205;52.032;4.314;2023-04-19T13:40:09;17.90;1.00
18160;DHT22;9205;52.032;4.314;2023-04-19T13:42:38;18.00;1.00
18160;DHT22;9205;52.032;4.314;2023-04-19T13:45:07;18.10;1.00
18160;DHT22;9205;52.032;4.314;2023-04-19T13:47:35;17.90;1.00
18160;DHT22;9205;52.032;4.314;2023-04-19T13:50:02;17.80;1.00
18160;DHT22;9205;52.032;4.314;2023-04-19T13:52:30;18.20;1.00
18160;DHT22;9205;52.032;4.314;2023-04-19T13:54:57;18.30;1.00
18160;DHT22;9205;52.032;4.314;2023-04-19T13:57:25;17.60;1.00
18160;DHT22;9205;52.032;4.314;2023-04-19T13:59:53;17.50;1.00
18160;DHT22;9205;52.032;4.314;2023-04-19T14:02:20;17.80;1.00
18160;DHT22;9205;52.032;4.314;2023-04-19T14:04:48;17.90;1.00
18160;DHT22;9205;52.032;4.314;2023-04-19T14:07:15;18.00;1.00
18160;DHT22;9205;52.032;4.314;2023-04-19T14:09:42;17.90;1.00
18160;DHT22;9205;52.032;4.314;2023-04-19T14:12:10;17.70;1.00
18160;DHT22;9205;52.032;4.314;2023-04-19T14:14:37;17.80;1.00
18160;DHT22;9205;52.032;4.314;2023-04-19T14:17:06;17.70;1.00
18160;DHT22;9205;52.032;4.314;2023-04-19T14:19:33;17.60;1.00
18160;DHT22;9205;52.032;4.314;2023-04-19T14:22:00;17.80;1.00
18160;DHT22;9205;52.032;4.314;2023-04-19T14:24:27;17.70;1.00
18160;DHT22;9205;52.032;4.314;2023-04-19T14:26:54;17.70;1.00
18160;DHT22;9205;52.032;4.314;2023-04-19T14:29:22;17.60;1.00
18160;DHT22;9205;52.032;4.314;2023-04-19T14:31:50;17.80;1.00
18160;DHT22;9205;52.032;4.314;2023-04-19T14:34:18;17.60;1.00
18160;DHT22;9205;52.032;4.314;2023-04-19T14:36:45;17.50;1.00
18160;DHT22;9205;52.032;4.314;2023-04-19T14:39:13;17.40;1.00
18160;DHT22;9205;52.032;4.314;2023-04-19T14:41:40;17.60;1.00
18160;DHT22;9205;52.032;4.314;2023-04-19T14:44:07;17.50;1.00
18160;DHT22;9205;52.032;4.314;2023-04-19T14:46:34;17.10;1.00
18160;DHT22;9205;52.032;4.314;2023-04-19T14:49:01;17.00;1.00
18160;DHT22;9205;52.032;4.314;2023-04-19T14:51:32;16.70;1.00
18160;DHT22;9205;52.032;4.314;2023-04-19T14:53:59;16.50;1.00
18160;DHT22;9205;52.032;4.314;2023-04-19T14:56:26;16.40;1.00
18160;DHT22;9205;52.032;4.314;2023-04-19T14:58:53;16.30;1.00
18160;DHT22;9205;52.032;4.314;2023-04-19T15:01:21;16.20;1.00
18160;DHT22;9205;52.032;4.314;2023-04-19T15:03:48;16.20;1.00
18160;DHT22;9205;52.032;4.314;2023-04-19T15:06:15;16.10;1.00
18160;DHT22;9205;52.032;4.314;2023-04-19T15:08:44;16.00;1.00
18160;DHT22;9205;52.032;4.314;2023-04-19T15:11:11;15.90;1.00
18160;DHT22;9205;52.032;4.314;2023-04-19T15:13:39;15.90;1.00
18160;DHT22;9205;52.032;4.314;2023-04-19T15:16:06;16.00;1.00
18160;DHT22;9205;52.032;4.314;2023-04-19T15:18:34;15.90;1.00
18160;DHT22;9205;52.032;4.314;2023-04-19T15:21:02;15.90;1.00
18160;DHT22;9205;52.032;4.314;2023-04-19T15:23:29;15.80;1.00
18160;DHT22;9205;52.032;4.314;2023-04-19T15:25:58;15.80;1.00
18160;DHT22;9205;52.032;4.314;2023-04-19T15:28:25;15.80;1.00
18160;DHT22;9205;52.032;4.314;2023-04-19T15:30:56;16.00;1.00
18160;DHT22;9205;52.032;4.314;2023-04-19T15:33:25;16.00;1.00
18160;DHT22;9205;52.032;4.314;2023-04-19T15:35:53;16.10;1.00
18160;DHT22;9205;52.032;4.314;2023-04-19T15:38:22;16.20;1.00
18160;DHT22;9205;52.032;4.314;2023-04-19T15:40:50;16.20;1.00
18160;DHT22;9205;52.032;4.314;2023-04-19T15:43:19;16.30;1.00
18160;DHT22;9205;52.032;4.314;2023-04-19T15:45:46;16.20;1.00
18160;DHT22;9205;52.032;4.314;2023-04-19T15:48:13;16.20;1.00
18160;DHT22;9205;52.032;4.314;2023-04-19T15:50:41;16.10;1.00
18160;DHT22;9205;52.032;4.314;2023-04-19T15:53:08;16.10;1.00
18160;DHT22;9205;52.032;4.314;2023-04-19T15:55:36;16.10;1.00
18160;DHT22;9205;52.032;4.314;2023-04-19T15:58:03;16.20;1.00
18160;DHT22;9205;52.032;4.314;2023-04-19T16:00:32;16.20;1.00
18160;DHT22;9205;52.032;4.314;2023-04-19T16:02:59;16.20;1.00
18160;DHT22;9205;52.032;4.314;2023-04-19T16:05:26;16.00;1.00
18160;DHT22;9205;52.032;4.314;2023-04-19T16:08:00;16.00;1.00
18160;DHT22;9205;52.032;4.314;2023-04-19T16:10:28;15.80;1.00
18160;DHT22;9205;52.032;4.314;2023-04-19T16:12:56;16.00;1.00
18160;DHT22;9205;52.032;4.314;2023-04-19T16:15:24;16.00;1.00
18160;DHT22;9205;52.032;4.314;2023-04-19T16:17:58;16.00;1.00